createdAt,value
2023-02-24T00:00:42.915Z,24.35
2023-02-24T00:03:11.432Z,16.95
2023-02-24T00:05:44.393Z,23.52
2023-02-24T00:08:11.330Z,22.27
2023-02-24T00:10:38.106Z,17.80
2023-02-24T00:13:04.991Z,15.25
2023-02-24T00:15:31.783Z,20.77
2023-02-24T00:17:58.619Z,21.75
2023-02-24T00:20:25.507Z,15.45
2023-02-24T00:22:52.362Z,18.08
2023-02-24T00:25:19.206Z,16.73
2023-02-24T00:27:46.010Z,18.52
2023-02-24T00:30:13.217Z,16.85
2023-02-24T00:32:40.198Z,17.27
2023-02-24T00:35:08.566Z,20.80
2023-02-24T00:37:35.501Z,18.58
2023-02-24T00:40:02.321Z,18.50
2023-02-24T00:42:29.994Z,12.88
2023-02-24T00:44:56.780Z,18.05
2023-02-24T00:47:23.675Z,11.07
2023-02-24T00:49:50.684Z,16.52
2023-02-24T00:52:19.244Z,14.82
2023-02-24T00:54:47.306Z,16.88
2023-02-24T00:57:18.406Z,24.25
2023-02-24T00:59:48.116Z,14.73
2023-02-24T01:02:15.233Z,12.15
2023-02-24T01:04:44.412Z,18.65
2023-02-24T01:07:13.534Z,13.88
2023-02-24T01:09:41.456Z,18.90
2023-02-24T01:12:22.043Z,16.73
2023-02-24T01:14:51.029Z,19.25
2023-02-24T01:17:18.418Z,16.85
2023-02-24T01:19:45.627Z,22.23
2023-02-24T01:22:14.731Z,18.10
2023-02-24T01:24:42.580Z,13.10
2023-02-24T01:27:10.394Z,16.23
2023-02-24T01:29:39.562Z,17.38
2023-02-24T01:32:12.895Z,9.82
2023-02-24T01:34:42.520Z,21.88
2023-02-24T01:37:10.118Z,14.60
2023-02-24T01:39:37.383Z,31.25
2023-02-24T01:42:04.854Z,19.95
2023-02-24T01:44:32.587Z,17.50
2023-02-24T01:47:03.627Z,11.98
2023-02-24T01:49:52.961Z,18.80
2023-02-24T01:52:25.599Z,19.50
2023-02-24T01:55:13.797Z,15.20
2023-02-24T01:57:42.026Z,30.73
2023-02-24T02:00:11.800Z,21.42
2023-02-24T02:02:43.971Z,18.40
2023-02-24T02:05:11.539Z,13.40
2023-02-24T02:07:39.063Z,14.20
2023-02-24T02:10:06.738Z,21.02
2023-02-24T02:12:44.137Z,15.60
2023-02-24T02:15:13.519Z,13.88
2023-02-24T02:17:59.061Z,11.88
2023-02-24T02:20:35.326Z,15.52
2023-02-24T02:23:11.444Z,23.75
2023-02-24T02:25:57.201Z,16.08
2023-02-24T02:28:47.354Z,22.33
2023-02-24T02:31:25.893Z,15.05
2023-02-24T02:34:11.894Z,11.57
2023-02-24T02:37:01.086Z,11.23
2023-02-24T02:39:58.791Z,13.35
2023-02-24T02:42:49.541Z,21.98
2023-02-24T02:45:25.835Z,21.67
2023-02-24T02:47:59.661Z,20.63
2023-02-24T02:50:28.100Z,22.85
2023-02-24T02:53:06.532Z,25.30
2023-02-24T02:55:38.719Z,24.40
2023-02-24T02:58:09.184Z,23.60
2023-02-24T03:00:42.093Z,19.02
2023-02-24T03:03:15.258Z,20.88
2023-02-24T03:05:52.413Z,17.58
2023-02-24T03:08:21.705Z,21.20
2023-02-24T03:10:52.209Z,32.85
2023-02-24T03:13:24.191Z,28.00
2023-02-24T03:15:52.323Z,25.23
2023-02-24T03:18:34.147Z,26.20
2023-02-24T03:21:11.827Z,26.75
2023-02-24T03:23:45.373Z,19.63
2023-02-24T03:29:11.038Z,21.35
2023-02-24T03:31:51.035Z,24.75
2023-02-24T03:34:24.053Z,16.23
2023-02-24T03:36:50.981Z,20.48
2023-02-24T03:39:18.003Z,14.35
2023-02-24T03:42:02.655Z,19.52
2023-02-24T03:46:58.690Z,28.25
2023-02-24T03:49:25.604Z,29.95
2023-02-24T03:52:08.833Z,29.98
2023-02-24T03:54:47.584Z,29.13
2023-02-24T03:57:54.749Z,26.95
2023-02-24T04:00:35.273Z,18.38
2023-02-24T04:03:06.703Z,24.30
2023-02-24T04:05:34.144Z,28.42
2023-02-24T04:08:05.509Z,26.10
2023-02-24T04:11:05.274Z,26.92
2023-02-24T04:13:44.950Z,30.75
2023-02-24T04:16:28.226Z,22.92
2023-02-24T04:19:02.862Z,22.02
2023-02-24T04:21:32.142Z,22.60
2023-02-24T04:24:00.889Z,21.95
2023-02-24T04:26:28.943Z,22.92
2023-02-24T04:28:56.774Z,25.05
2023-02-24T04:31:24.365Z,18.92
2023-02-24T04:33:53.318Z,23.83
2023-02-24T04:36:27.553Z,26.15
2023-02-24T04:38:54.487Z,26.60
2023-02-24T04:41:22.268Z,24.58
2023-02-24T04:43:50.902Z,25.70
2023-02-24T04:46:19.023Z,22.88
2023-02-24T04:48:46.007Z,21.73
2023-02-24T04:51:13.772Z,24.77
2023-02-24T04:53:40.856Z,23.08
2023-02-24T04:56:09.029Z,22.60
2023-02-24T04:58:37.394Z,27.05
2023-02-24T05:01:10.447Z,29.98
2023-02-24T05:03:38.665Z,26.88
2023-02-24T05:06:06.405Z,26.40
2023-02-24T05:08:33.844Z,18.20
2023-02-24T05:11:03.934Z,19.75
2023-02-24T05:13:31.791Z,16.88
2023-02-24T05:16:00.336Z,30.33
2023-02-24T05:18:30.025Z,15.48
2023-02-24T05:21:16.161Z,13.25
2023-02-24T05:23:44.472Z,18.23
2023-02-24T05:26:16.315Z,20.02
2023-02-24T05:28:44.290Z,22.85
2023-02-24T05:31:15.149Z,17.38
2023-02-24T05:33:48.533Z,16.90
2023-02-24T05:36:17.762Z,19.23
2023-02-24T05:38:45.605Z,12.73
2023-02-24T05:41:17.776Z,30.60
2023-02-24T05:43:52.890Z,22.70
2023-02-24T05:46:20.855Z,14.38
2023-02-24T05:48:51.216Z,27.42
2023-02-24T05:51:18.525Z,16.52
2023-02-24T05:53:45.932Z,16.60
2023-02-24T05:56:12.845Z,12.65
2023-02-24T05:58:39.682Z,13.18
2023-02-24T06:01:16.498Z,12.25
2023-02-24T06:03:47.968Z,16.15
2023-02-24T06:06:17.876Z,12.32
2023-02-24T06:08:51.109Z,19.17
2023-02-24T06:11:19.210Z,18.50
2023-02-24T06:13:49.396Z,21.85
2023-02-24T06:16:17.301Z,14.40
2023-02-24T06:18:44.429Z,17.10
2023-02-24T06:21:12.652Z,12.20
2023-02-24T06:23:42.511Z,14.95
2023-02-24T06:26:13.173Z,14.52
2023-02-24T06:28:43.238Z,15.20
2023-02-24T06:31:11.062Z,13.40
2023-02-24T06:33:38.327Z,16.83
2023-02-24T06:36:05.526Z,20.73
2023-02-24T06:38:33.283Z,16.48
2023-02-24T06:41:03.299Z,34.63
2023-02-24T06:43:31.272Z,21.50
2023-02-24T06:45:58.146Z,13.23
2023-02-24T06:48:25.209Z,25.60
2023-02-24T06:50:52.011Z,17.42
2023-02-24T06:53:18.846Z,11.48
2023-02-24T06:55:49.347Z,14.60
2023-02-24T06:58:17.662Z,20.95
2023-02-24T07:00:56.670Z,22.05
2023-02-24T07:03:25.770Z,24.60
2023-02-24T07:06:11.150Z,28.48
2023-02-24T07:08:38.374Z,22.27
2023-02-24T07:11:07.876Z,19.77
2023-02-24T07:13:34.762Z,17.27
2023-02-24T07:16:06.980Z,23.48
2023-02-24T07:18:37.196Z,19.77
2023-02-24T07:21:11.729Z,22.20
2023-02-24T07:23:42.311Z,18.63
2023-02-24T07:26:19.183Z,25.42
2023-02-24T07:28:48.061Z,32.22
2023-02-24T07:31:18.820Z,33.13
2023-02-24T07:33:46.556Z,28.15
2023-02-24T07:36:15.040Z,31.33
2023-02-24T07:38:42.372Z,25.30
2023-02-24T07:41:10.745Z,31.10
2023-02-24T07:43:38.233Z,23.80
2023-02-24T07:46:07.882Z,35.08
2023-02-24T07:48:36.422Z,32.65
2023-02-24T07:51:14.714Z,29.92
2023-02-24T07:53:41.841Z,27.15
2023-02-24T07:56:13.668Z,35.63
2023-02-24T07:58:44.499Z,31.25
2023-02-24T08:01:22.873Z,55.65
2023-02-24T08:03:52.153Z,58.58
2023-02-24T08:06:27.330Z,37.05
2023-02-24T08:08:58.005Z,32.33
2023-02-24T08:11:42.567Z,45.83
2023-02-24T08:14:13.985Z,38.70
2023-02-24T08:16:42.604Z,20.27
2023-02-24T08:19:13.262Z,30.38
2023-02-24T08:21:41.628Z,29.00
2023-02-24T08:24:20.312Z,37.92
2023-02-24T08:27:05.093Z,32.72
2023-02-24T08:29:40.349Z,32.25
2023-02-24T08:32:09.457Z,39.08
2023-02-24T08:34:37.146Z,30.90
2023-02-24T08:37:04.594Z,43.25
2023-02-24T08:39:36.623Z,32.30
2023-02-24T08:42:03.437Z,37.10
2023-02-24T08:44:30.342Z,44.97
2023-02-24T08:46:57.910Z,30.90
2023-02-24T08:49:24.956Z,29.35
2023-02-24T08:51:53.026Z,39.65
2023-02-24T08:54:27.233Z,41.33
2023-02-24T08:57:07.995Z,34.53
2023-02-24T08:59:40.297Z,32.60
2023-02-24T09:02:20.908Z,30.67
2023-02-24T09:04:53.080Z,37.45
2023-02-24T09:07:22.638Z,29.17
2023-02-24T09:09:49.711Z,30.85
2023-02-24T09:12:24.882Z,31.38
2023-02-24T09:15:01.244Z,30.75
2023-02-24T09:17:40.904Z,33.47
2023-02-24T09:20:30.331Z,40.83
2023-02-24T09:23:03.566Z,34.47
2023-02-24T09:25:54.624Z,37.08
2023-02-24T09:28:24.912Z,43.10
2023-02-24T09:30:56.990Z,32.53
2023-02-24T09:33:38.986Z,33.55
2023-02-24T09:36:19.989Z,32.33
2023-02-24T09:39:09.828Z,37.97
2023-02-24T09:42:05.693Z,33.78
2023-02-24T09:44:36.878Z,33.03
2023-02-24T09:47:40.109Z,30.50
2023-02-24T09:50:59.037Z,34.55
2023-02-24T09:53:17.660Z,40.55
2023-02-24T09:56:00.670Z,32.50
2023-02-24T09:58:48.914Z,32.40
2023-02-24T10:01:42.798Z,37.15
2023-02-24T10:07:11.197Z,43.60
2023-02-24T10:09:41.434Z,37.30
2023-02-24T10:12:19.447Z,44.95
2023-02-24T10:15:19.836Z,35.90
2023-02-24T10:18:12.719Z,34.55
2023-02-24T10:20:40.914Z,30.50
2023-02-24T10:23:13.294Z,30.17
2023-02-24T10:25:42.334Z,40.15
2023-02-24T10:28:52.030Z,36.20
2023-02-24T10:31:35.584Z,41.55
2023-02-24T10:36:35.694Z,42.92
2023-02-24T10:39:25.909Z,34.13
2023-02-24T10:42:17.523Z,34.80
2023-02-24T10:45:01.436Z,38.65
2023-02-24T10:47:32.891Z,44.17
2023-02-24T10:50:04.252Z,39.50
2023-02-24T10:53:10.777Z,39.05
2023-02-24T10:55:45.573Z,40.65
2023-02-24T10:58:28.221Z,41.40
2023-02-24T11:01:12.053Z,32.03
2023-02-24T11:04:13.141Z,42.25
2023-02-24T11:06:39.958Z,32.42
2023-02-24T11:09:37.879Z,42.72
2023-02-24T11:12:33.387Z,38.90
2023-02-24T11:15:25.256Z,41.58
2023-02-24T11:17:59.218Z,34.15
2023-02-24T11:20:48.398Z,36.92
2023-02-24T11:23:24.647Z,31.25
2023-02-24T11:25:53.655Z,29.38
2023-02-24T11:28:33.308Z,29.33
2023-02-24T11:31:36.104Z,36.75
2023-02-24T11:34:10.044Z,25.73
2023-02-24T11:36:45.765Z,28.83
2023-02-24T11:39:37.936Z,21.92
2023-02-24T11:42:08.551Z,28.30
2023-02-24T11:44:58.947Z,25.30
2023-02-24T11:47:39.615Z,21.00
2023-02-24T11:50:28.640Z,26.10
2023-02-24T11:52:56.210Z,32.15
2023-02-24T11:55:39.205Z,28.38
2023-02-24T11:58:34.372Z,38.55
2023-02-24T12:01:15.953Z,25.30
2023-02-24T12:04:12.582Z,19.48
2023-02-24T12:06:41.845Z,26.60
2023-02-24T12:09:19.653Z,35.33
2023-02-24T12:12:07.225Z,32.47
2023-02-24T12:14:40.828Z,31.10
2023-02-24T12:17:41.765Z,25.95
2023-02-24T12:20:29.231Z,31.83
2023-02-24T12:22:58.370Z,32.00
2023-02-24T12:25:30.242Z,29.38
2023-02-24T12:28:24.230Z,27.92
2023-02-24T12:33:52.268Z,27.80
2023-02-24T12:36:22.997Z,29.95
2023-02-24T12:38:53.534Z,30.45
2023-02-24T12:41:35.266Z,32.85
2023-02-24T12:44:03.409Z,28.97
2023-02-24T12:46:38.821Z,27.77
2023-02-24T12:49:32.943Z,32.13
2023-02-24T12:52:03.558Z,29.70
2023-02-24T12:54:39.109Z,29.80
2023-02-24T12:57:23.981Z,28.02
2023-02-24T12:59:50.790Z,28.38
2023-02-24T13:02:35.009Z,35.72
2023-02-24T13:05:19.719Z,33.58
2023-02-24T13:07:49.470Z,36.08
2023-02-24T13:10:45.664Z,34.47
2023-02-24T13:13:15.604Z,36.85
2023-02-24T13:15:50.534Z,34.65
2023-02-24T13:18:28.343Z,34.85
2023-02-24T13:21:25.910Z,35.40
2023-02-24T13:23:57.441Z,28.33
2023-02-24T13:26:25.114Z,27.70
2023-02-24T13:29:22.731Z,23.92
2023-02-24T13:31:51.035Z,30.83
2023-02-24T13:34:34.157Z,38.63
2023-02-24T13:37:01.061Z,40.15
2023-02-24T13:39:35.841Z,33.55
2023-02-24T13:42:25.659Z,36.70
2023-02-24T13:44:54.164Z,26.40
2023-02-24T13:47:34.537Z,29.55
2023-02-24T13:50:20.957Z,29.13
2023-02-24T13:52:54.705Z,40.20
2023-02-24T13:55:55.282Z,35.10
2023-02-24T13:58:33.752Z,39.90
2023-02-24T14:01:07.457Z,36.80
2023-02-24T14:03:34.367Z,36.63
2023-02-24T14:06:01.530Z,39.13
2023-02-24T14:08:41.930Z,39.40
2023-02-24T14:11:11.663Z,35.47
2023-02-24T14:13:38.557Z,45.42
2023-02-24T14:16:08.378Z,35.05
2023-02-24T14:18:36.626Z,38.17
2023-02-24T14:21:03.657Z,32.92
2023-02-24T14:23:32.177Z,35.15
2023-02-24T14:25:59.965Z,43.83
2023-02-24T14:28:34.451Z,37.28
2023-02-24T14:31:10.694Z,30.10
2023-02-24T14:33:39.134Z,34.63
2023-02-24T14:36:07.751Z,39.08
2023-02-24T14:38:35.504Z,40.00
2023-02-24T14:41:04.379Z,36.53
2023-02-24T14:43:31.481Z,40.65
2023-02-24T14:45:58.423Z,31.45
2023-02-24T14:48:29.908Z,34.85
2023-02-24T14:51:03.071Z,34.75
2023-02-24T14:53:29.892Z,31.25
2023-02-24T14:55:57.290Z,36.85
2023-02-24T14:58:43.002Z,33.92
2023-02-24T15:01:33.165Z,30.38
2023-02-24T15:04:01.624Z,33.28
2023-02-24T15:06:32.071Z,36.85
2023-02-24T15:08:58.934Z,36.63
2023-02-24T15:11:29.308Z,28.33
2023-02-24T15:13:58.128Z,45.90
2023-02-24T15:16:26.257Z,29.27
2023-02-24T15:18:54.547Z,33.42
2023-02-24T15:21:23.318Z,30.95
2023-02-24T15:23:50.215Z,26.70
2023-02-24T15:26:31.476Z,28.30
2023-02-24T15:29:03.445Z,27.67
2023-02-24T15:31:30.451Z,27.70
2023-02-24T15:34:00.795Z,24.13
2023-02-24T15:36:35.256Z,30.33
2023-02-24T15:39:06.871Z,39.97
2023-02-24T15:41:43.597Z,31.60
2023-02-24T15:44:33.020Z,27.95
2023-02-24T15:47:00.952Z,33.67
2023-02-24T15:49:27.797Z,25.88
2023-02-24T15:51:55.070Z,25.85
2023-02-24T15:54:51.501Z,43.20
2023-02-24T15:57:18.397Z,31.98
2023-02-24T15:59:45.224Z,36.42
2023-02-24T16:02:19.916Z,29.80
2023-02-24T16:04:47.480Z,44.67
2023-02-24T16:07:19.671Z,35.22
2023-02-24T16:09:47.011Z,36.88
2023-02-24T16:12:26.170Z,38.55
2023-02-24T16:14:56.921Z,38.55
2023-02-24T16:17:41.334Z,48.50
2023-02-24T16:20:27.756Z,29.98
2023-02-24T16:22:57.927Z,31.17
2023-02-24T16:25:27.168Z,39.50
2023-02-24T16:27:57.578Z,27.35
2023-02-24T16:30:30.917Z,30.63
2023-02-24T16:33:00.604Z,32.50
2023-02-24T16:35:28.751Z,29.58
2023-02-24T16:37:57.171Z,37.10
2023-02-24T16:40:31.213Z,25.77
2023-02-24T16:42:59.704Z,26.83
2023-02-24T16:45:28.918Z,23.05
2023-02-24T16:47:58.701Z,33.78
2023-02-24T16:50:30.900Z,22.02
2023-02-24T16:52:59.121Z,28.77
2023-02-24T16:55:27.591Z,22.38
2023-02-24T16:57:56.242Z,26.77
2023-02-24T17:00:24.727Z,22.52
2023-02-24T17:02:53.749Z,17.83
2023-02-24T17:05:24.188Z,25.33
2023-02-24T17:07:54.218Z,28.02
2023-02-24T17:10:22.880Z,24.52
2023-02-24T17:12:51.010Z,18.15
2023-02-24T17:15:20.879Z,30.58
2023-02-24T17:17:49.064Z,20.98
2023-02-24T17:20:18.736Z,24.55
2023-02-24T17:22:47.087Z,27.88
2023-02-24T17:25:23.090Z,22.42
2023-02-24T17:27:51.218Z,21.15
2023-02-24T17:30:24.952Z,23.35
2023-02-24T17:32:53.063Z,21.95
2023-02-24T17:35:20.961Z,24.33
2023-02-24T17:37:49.037Z,20.85
2023-02-24T17:40:16.999Z,24.10
2023-02-24T17:42:45.206Z,31.00
2023-02-24T17:45:16.030Z,28.38
2023-02-24T17:47:44.330Z,28.98
2023-02-24T17:50:13.875Z,29.08
2023-02-24T17:52:42.297Z,25.02
2023-02-24T17:55:10.957Z,26.02
2023-02-24T17:57:40.103Z,26.77
2023-02-24T18:00:10.457Z,38.72
2023-02-24T18:02:41.940Z,26.67
2023-02-24T18:05:09.682Z,25.25
2023-02-24T18:10:48.512Z,25.33
2023-02-24T18:13:15.438Z,27.80
2023-02-24T18:15:42.906Z,22.45
2023-02-24T18:18:09.935Z,23.45
2023-02-24T18:20:36.962Z,28.85
2023-02-24T18:23:03.905Z,27.98
2023-02-24T18:25:30.677Z,27.25
2023-02-24T18:27:57.440Z,27.73
2023-02-24T18:30:24.209Z,24.60
2023-02-24T18:32:51.968Z,26.17
2023-02-24T18:35:21.933Z,25.20
2023-02-24T18:37:53.249Z,30.75
2023-02-24T18:40:20.779Z,19.58
2023-02-24T18:42:49.005Z,37.38
2023-02-24T18:45:15.942Z,19.67
2023-02-24T18:47:42.894Z,21.83
2023-02-24T18:50:10.351Z,24.75
2023-02-24T18:52:37.160Z,26.40
2023-02-24T18:55:04.125Z,22.05
2023-02-24T18:57:31.150Z,28.33
2023-02-24T18:59:58.153Z,23.38
2023-02-24T19:02:25.149Z,32.53
2023-02-24T19:04:53.276Z,25.58
2023-02-24T19:07:20.297Z,25.90
2023-02-24T19:09:48.187Z,18.65
2023-02-24T19:12:16.802Z,26.63
2023-02-24T19:14:44.260Z,28.23
2023-02-24T19:17:11.223Z,29.95
2023-02-24T19:19:39.085Z,26.65
2023-02-24T19:22:05.896Z,28.33
2023-02-24T19:24:32.700Z,28.35
2023-02-24T19:26:59.553Z,31.38
2023-02-24T19:29:28.033Z,25.08
2023-02-24T19:31:57.598Z,35.58
2023-02-24T19:34:24.577Z,40.45
2023-02-24T19:36:51.352Z,39.03
2023-02-24T19:39:18.243Z,50.35
2023-02-24T19:41:46.248Z,43.22
2023-02-24T19:44:16.893Z,51.08
2023-02-24T19:46:46.720Z,37.45
2023-02-24T19:49:13.558Z,48.38
2023-02-24T19:51:40.391Z,42.97
2023-02-24T19:54:07.260Z,36.92
2023-02-24T19:56:35.319Z,53.40
2023-02-24T19:59:02.678Z,40.58
2023-02-24T20:01:30.146Z,42.88
2023-02-24T20:04:01.252Z,47.03
2023-02-24T20:06:33.749Z,43.10
2023-02-24T20:09:00.865Z,39.23
2023-02-24T20:11:29.689Z,43.88
2023-02-24T20:13:56.527Z,45.65
2023-02-24T20:16:25.794Z,37.78
2023-02-24T20:18:54.641Z,48.38
2023-02-24T20:21:21.435Z,39.58
2023-02-24T20:23:48.366Z,48.92
2023-02-24T20:26:16.316Z,49.90
2023-02-24T20:28:44.223Z,58.85
2023-02-24T20:31:12.675Z,39.63
2023-02-24T20:33:40.841Z,46.58
2023-02-24T20:36:12.401Z,45.78
2023-02-24T20:38:39.364Z,40.80
2023-02-24T20:41:06.198Z,37.65
2023-02-24T20:43:33.141Z,44.92
2023-02-24T20:46:00.197Z,44.83
2023-02-24T20:48:27.048Z,38.40
2023-02-24T20:50:53.932Z,40.70
2023-02-24T20:53:20.692Z,37.95
2023-02-24T20:55:47.492Z,38.22
2023-02-24T20:58:14.259Z,34.63
2023-02-24T21:00:41.104Z,33.10
2023-02-24T21:03:11.931Z,34.63
2023-02-24T21:05:39.277Z,26.80
2023-02-24T21:08:06.141Z,28.33
2023-02-24T21:10:33.094Z,36.42
2023-02-24T21:12:59.986Z,32.80
2023-02-24T21:15:26.995Z,37.28
2023-02-24T21:17:53.863Z,35.90
2023-02-24T21:20:20.893Z,36.28
2023-02-24T21:22:47.761Z,44.38
2023-02-24T21:25:14.652Z,45.83
2023-02-24T21:27:41.565Z,39.38
2023-02-24T21:30:09.490Z,36.00
2023-02-24T21:32:36.494Z,35.25
2023-02-24T21:35:03.873Z,45.67
2023-02-24T21:37:30.650Z,53.53
2023-02-24T21:39:57.504Z,43.35
2023-02-24T21:42:27.975Z,54.17
2023-02-24T21:45:02.469Z,44.67
2023-02-24T21:47:32.446Z,40.60
2023-02-24T21:50:00.335Z,50.78
2023-02-24T21:52:27.332Z,52.05
2023-02-24T21:54:54.218Z,47.30
2023-02-24T21:57:21.171Z,71.75
2023-02-24T21:59:48.001Z,77.68
2023-02-24T22:02:17.885Z,97.07
2023-02-24T22:04:45.081Z,69.30
2023-02-24T22:07:12.058Z,54.50
2023-02-24T22:09:38.849Z,51.42
2023-02-24T22:12:05.969Z,37.30
2023-02-24T22:14:32.802Z,28.52
2023-02-24T22:16:59.947Z,24.33
2023-02-24T22:19:26.837Z,24.00
2023-02-24T22:21:53.619Z,23.23
2023-02-24T22:24:20.609Z,14.48
2023-02-24T22:26:47.370Z,13.70
2023-02-24T22:29:14.149Z,19.08
2023-02-24T22:31:43.602Z,19.33
2023-02-24T22:34:11.087Z,17.20
2023-02-24T22:36:37.992Z,19.80
2023-02-24T22:39:04.966Z,24.70
2023-02-24T22:41:33.251Z,19.83
2023-02-24T22:44:02.017Z,22.77
2023-02-24T22:46:30.886Z,18.67
2023-02-24T22:48:57.812Z,20.05
2023-02-24T22:51:24.917Z,16.85
2023-02-24T22:53:52.053Z,24.52
2023-02-24T22:56:21.488Z,21.65
2023-02-24T22:58:48.776Z,19.65
2023-02-24T23:01:16.879Z,19.42
2023-02-24T23:03:46.025Z,18.20
2023-02-24T23:06:15.088Z,16.15
2023-02-24T23:08:43.002Z,17.85
2023-02-24T23:11:18.448Z,17.17
2023-02-24T23:13:46.735Z,19.13
2023-02-24T23:16:15.990Z,15.63
2023-02-24T23:18:48.590Z,18.63
2023-02-24T23:21:16.241Z,13.00
2023-02-24T23:23:43.126Z,18.63
2023-02-24T23:26:11.281Z,13.85
2023-02-24T23:28:38.303Z,21.13
2023-02-24T23:31:05.449Z,17.52
2023-02-24T23:33:32.634Z,18.70
2023-02-24T23:36:05.289Z,20.70
2023-02-24T23:38:33.418Z,20.73
2023-02-24T23:41:00.866Z,17.15
2023-02-24T23:43:27.690Z,17.75
2023-02-24T23:45:54.520Z,23.08
2023-02-24T23:48:21.393Z,20.15
2023-02-24T23:50:51.252Z,20.98
2023-02-24T23:53:18.194Z,19.10
2023-02-24T23:55:45.030Z,18.67
2023-02-24T23:58:11.910Z,20.33
